Terminal Aerodrome Forecast
Issued by NWS Blacksburg, VA

Home | Current Version | Previous Version | Text Only | Print | Product List | Glossary On
Versions: 1 2 3 4 5 6 7 8 9 10 11 12 13 14 15 16 17 18 19 20 21 22 23 24 25 26 27 28 29 30 31 32 33 34 35 36 37 38 39 40 41 42
000
FTUS41 KRNK 040520
TAFROA
TAF
KROA 040520Z 0406/0506 00000KT 6SM -RA BR SCT012 OVC100
      WS020/25043KT
     FM040900 28004KT 2SM BR OVC012 WS020/25047KT
     FM041300 29004KT 6SM BR OVC008
     FM041700 33004KT 5SM -RA BR OVC020
     FM050000 36008KT 2SM -RA BR OVC015=

USA.gov is the U.S. government's official web portal to all federal, state and local government web resources and services.